Time;durP1;ratioP1;P1;durP2;ratioP2;P2;SDS_P1;SDS_P2;PMS_P1;PMS_P2;Temp;Humidity;BMP_temperature;BMP_pressure;BME280_temperature;BME280_humidity;BME280_pressure;Samples;Min_cycle;Max_cycle;Signal;HPM_P1;HPM_P2
2022/12/16 00:01:12;;;;;;;19.65;10.73;;;;;;;-3.27;77.04;99140.72;4978824;28;20455;-67
2022/12/16 00:03:38;;;;;;;28.55;15.20;;;;;;;-3.34;77.07;99137.41;4999368;28;20033;-68
2022/12/16 00:06:04;;;;;;;14.15;8.07;;;;;;;-3.14;76.97;99133.47;4996588;28;20055;-67
2022/12/16 00:08:34;;;;;;;21.23;11.57;;;;;;;-3.41;77.30;99132.41;4997778;28;20811;-68
2022/12/16 00:11:00;;;;;;;22.13;11.93;;;;;;;-3.30;77.23;99126.03;4998981;28;20045;-66
2022/12/16 00:13:26;;;;;;;25.77;14.27;;;;;;;-3.52;77.74;99126.56;4980034;28;20065;-67
2022/12/16 00:15:51;;;;;;;10.57;6.70;;;;;;;-3.27;78.33;99119.88;4978609;28;20143;-67
2022/12/16 00:18:18;;;;;;;17.33;10.45;;;;;;;-3.43;78.40;99116.78;4999216;28;20049;-67
2022/12/16 00:20:47;;;;;;;23.40;11.60;;;;;;;-3.48;78.81;99123.84;4981252;28;20459;-65
2022/12/16 00:23:13;;;;;;;20.10;10.73;;;;;;;-3.47;78.91;99112.53;4980317;28;20483;-66
2022/12/16 00:25:37;;;;;;;21.85;11.18;;;;;;;-3.45;78.92;99107.28;4997060;28;20068;-66
2022/12/16 00:28:02;;;;;;;20.95;13.43;;;;;;;-3.48;79.06;99113.41;4997127;28;20061;-69
2022/12/16 00:30:27;;;;;;;24.17;10.77;;;;;;;-3.34;78.82;99103.53;4996449;28;20096;-66
2022/12/16 00:32:51;;;;;;;22.75;10.50;;;;;;;-3.21;78.20;99106.69;4996950;28;20169;-65
2022/12/16 00:35:16;;;;;;;18.75;10.77;;;;;;;-3.21;77.96;99111.91;4977196;28;20042;-68
2022/12/16 00:37:41;;;;;;;15.20;8.80;;;;;;;-3.16;78.20;99098.78;5000572;28;20045;-67
2022/12/16 00:40:06;;;;;;;15.63;7.25;;;;;;;-2.95;77.45;99113.88;4998716;28;20045;-64
2022/12/16 00:42:30;;;;;;;12.77;6.22;;;;;;;-2.94;77.14;99105.16;4996526;28;20198;-64
2022/12/16 00:44:56;;;;;;;19.17;11.25;;;;;;;-3.15;77.20;99097.84;4979017;28;20105;-65
2022/12/16 00:47:20;;;;;;;22.65;11.70;;;;;;;-3.22;77.70;99109.34;4959809;28;20583;-65
2022/12/16 00:49:46;;;;;;;17.73;9.55;;;;;;;-3.15;77.64;99100.47;4995293;28;20045;-66
2022/12/16 00:52:10;;;;;;;12.15;7.18;;;;;;;-3.05;77.84;99102.78;4973083;28;20547;-66
2022/12/16 00:54:35;;;;;;;21.63;10.73;;;;;;;-3.19;77.71;99104.06;4982231;28;20121;-66
2022/12/16 00:57:00;;;;;;;18.88;10.98;;;;;;;-3.19;77.70;99104.06;4991692;28;20055;-66
2022/12/16 00:59:24;;;;;;;8.43;5.78;;;;;;;-3.02;77.72;99110.56;5000090;28;20452;-68
2022/12/16 01:01:49;;;;;;;16.48;10.00;;;;;;;-2.99;77.32;99113.09;5002366;28;20412;-70
2022/12/16 01:04:14;;;;;;;18.92;10.23;;;;;;;-3.31;78.71;99100.00;4984676;28;20412;-67
2022/12/16 01:06:38;;;;;;;21.30;11.70;;;;;;;-3.27;78.95;99108.63;4981536;28;20076;-70
2022/12/16 01:09:03;;;;;;;20.33;10.77;;;;;;;-3.27;79.23;99113.81;4997932;28;20554;-68
2022/12/16 01:11:28;;;;;;;19.58;8.90;;;;;;;-3.19;79.19;99114.50;5007279;28;20036;-73
2022/12/16 01:13:53;;;;;;;10.13;6.22;;;;;;;-3.11;78.72;99117.75;4985485;28;20132;-71
2022/12/16 01:16:18;;;;;;;16.13;9.43;;;;;;;-3.18;78.49;99122.28;4983039;28;20760;-71
2022/12/16 01:18:42;;;;;;;17.48;9.80;;;;;;;-3.18;79.26;99119.66;4998058;28;20412;-71
2022/12/16 01:21:12;;;;;;;21.90;10.60;;;;;;;-3.22;79.42;99115.41;4997578;28;20041;-71
2022/12/16 01:23:37;;;;;;;15.52;8.73;;;;;;;-3.17;79.40;99120.53;4997688;28;20041;-70
2022/12/16 01:26:02;;;;;;;18.48;8.82;;;;;;;-3.17;79.70;99120.53;4963118;28;20030;-71
2022/12/16 01:28:28;;;;;;;17.90;9.52;;;;;;;-3.16;79.57;99125.66;4995085;28;20045;-66
2022/12/16 01:31:00;;;;;;;18.38;10.65;;;;;;;-3.08;79.90;99120.28;4976727;28;20037;-66
2022/12/16 01:33:25;;;;;;;19.85;10.30;;;;;;;-3.03;79.21;99108.84;4992199;28;20491;-67
2022/12/16 01:35:57;;;;;;;19.02;11.25;;;;;;;-3.15;79.75;99113.50;4987651;28;20421;-68
2022/12/16 01:38:22;;;;;;;20.25;10.25;;;;;;;-3.10;80.11;99122.06;4956294;28;20052;-69
2022/12/16 01:40:47;;;;;;;16.48;9.32;;;;;;;-3.01;80.22;99119.22;4973646;28;20042;-67
2022/12/16 01:43:13;;;;;;;14.65;7.45;;;;;;;-2.94;80.03;99118.19;4956259;28;20553;-66
2022/12/16 01:45:38;;;;;;;15.15;8.10;;;;;;;-2.90;79.98;99118.97;4973586;28;20036;-67
2022/12/16 01:48:29;;;;;;;8.65;5.60;;;;;;;-2.62;79.64;99114.75;4972635;28;20049;-68
2022/12/16 01:51:00;;;;;;;12.60;8.43;;;;;;;-2.74;79.34;99117.69;4951197;28;20120;-66
2022/12/16 01:53:25;;;;;;;23.77;11.45;;;;;;;-2.70;79.37;99125.38;4976829;28;20073;-67
2022/12/16 01:55:51;;;;;;;15.73;8.90;;;;;;;-2.73;79.27;99122.84;4940118;28;20030;-67
2022/12/16 01:58:21;;;;;;;19.88;11.10;;;;;;;-2.62;78.84;99115.59;4972770;28;20045;-68
2022/12/16 02:00:46;;;;;;;14.68;8.30;;;;;;;-2.66;79.00;99121.78;4974863;28;20045;-69
2022/12/16 02:03:11;;;;;;;17.85;10.55;;;;;;;-2.81;79.16;99122.19;4977038;28;20038;-68
2022/12/16 02:05:40;;;;;;;16.60;9.13;;;;;;;-2.63;78.89;99126.06;4982872;28;20057;-69
2022/12/16 02:08:04;;;;;;;15.00;9.27;;;;;;;-2.75;79.36;99118.56;4976148;28;20059;-70
2022/12/16 02:10:45;;;;;;;14.00;8.65;;;;;;;-2.66;79.32;99128.75;4984538;28;20105;-67
2022/12/16 02:13:35;;;;;;;13.48;8.13;;;;;;;-2.78;79.73;99116.88;4965322;28;20510;-69
2022/12/16 02:16:22;;;;;;;18.45;9.85;;;;;;;-2.79;80.08;99124.75;4979639;28;20046;-69
2022/12/16 02:19:01;;;;;;;17.40;9.18;;;;;;;-2.82;80.20;99117.84;4980790;28;20038;-70
2022/12/16 02:21:34;;;;;;;15.70;8.65;;;;;;;-2.75;80.55;99124.66;4945289;28;20110;-68
2022/12/16 02:24:10;;;;;;;16.00;8.63;;;;;;;-2.72;80.10;99121.09;4981875;28;20041;-69
2022/12/16 02:26:38;;;;;;;15.40;8.02;;;;;;;-2.72;80.51;99129.78;4979431;28;20043;-68
2022/12/16 02:29:51;;;;;;;14.32;7.53;;;;;;;-2.65;80.04;99133.06;4979673;28;20052;-67
2022/12/16 02:32:30;;;;;;;19.23;10.32;;;;;;;-2.80;80.13;99138.69;4937986;28;20054;-70
2022/12/16 02:35:08;;;;;;;18.88;9.65;;;;;;;-2.62;79.73;99139.09;4920087;28;20046;-68
2022/12/16 02:37:38;;;;;;;15.27;9.50;;;;;;;-2.67;80.04;99140.09;4924370;28;20462;-68
2022/12/16 02:40:46;;;;;;;17.40;9.35;;;;;;;-2.75;79.95;99142.03;4931064;28;20043;-73
2022/12/16 02:43:21;;;;;;;15.63;9.00;;;;;;;-2.62;80.03;99138.22;4860005;29;20043;-68
2022/12/16 02:45:47;;;;;;;9.90;5.95;;;;;;;-2.61;79.67;99148.63;4882659;29;20070;-69
2022/12/16 02:48:11;;;;;;;18.00;9.93;;;;;;;-2.70;80.01;99138.41;4882576;29;20519;-67
2022/12/16 02:50:44;;;;;;;16.52;9.23;;;;;;;-2.67;79.75;99138.34;4899262;29;20563;-69
2022/12/16 02:53:09;;;;;;;14.80;8.55;;;;;;;-2.78;79.84;99132.53;4884643;29;20424;-70
2022/12/16 02:56:17;;;;;;;15.52;10.45;;;;;;;-2.74;80.17;99135.94;4904353;29;20403;-73
2022/12/16 02:59:03;;;;;;;15.18;9.07;;;;;;;-2.63;80.05;99134.75;4899594;29;20392;-67
2022/12/16 03:01:41;;;;;;;18.73;10.35;;;;;;;-2.79;80.09;99137.78;4899115;29;20166;-69
2022/12/16 03:04:18;;;;;;;15.02;8.43;;;;;;;-2.72;80.72;99140.22;4867109;29;20119;-68
2022/12/16 03:06:48;;;;;;;20.40;11.00;;;;;;;-2.75;80.98;99137.69;4899818;29;20055;-68
2022/12/16 03:09:18;;;;;;;17.17;9.60;;;;;;;-2.65;80.57;99144.38;4899616;29;20051;-68
2022/12/16 03:11:45;;;;;;;18.48;10.23;;;;;;;-2.69;80.76;99141.88;4919003;29;20130;-69
2022/12/16 03:14:15;;;;;;;18.70;8.68;;;;;;;-2.71;80.61;99149.72;4917766;29;20054;-74
2022/12/16 03:16:41;;;;;;;17.10;9.63;;;;;;;-2.79;81.40;99145.63;4902562;29;20129;-67
2022/12/16 03:19:10;;;;;;;14.68;9.30;;;;;;;-2.73;81.50;99146.34;4900421;28;20459;-74
2022/12/16 03:21:48;;;;;;;16.52;8.75;;;;;;;-2.70;81.73;99150.59;4993657;28;20049;-73
2022/12/16 03:24:13;;;;;;;19.13;12.38;;;;;;;-2.77;81.46;99152.50;4995089;28;20034;-73
2022/12/16 03:26:48;;;;;;;15.25;8.70;;;;;;;-2.71;81.97;99156.75;4982159;28;20044;-74
2022/12/16 03:29:15;;;;;;;17.90;12.02;;;;;;;-2.73;82.34;99154.16;4979348;28;20053;-72
2022/12/16 03:31:54;;;;;;;17.95;9.27;;;;;;;-2.52;81.72;99159.72;4995519;28;20097;-72
2022/12/16 03:34:38;;;;;;;18.27;11.52;;;;;;;-2.53;81.66;99165.81;4976901;28;20044;-74
2022/12/16 03:37:06;;;;;;;16.92;9.43;;;;;;;-2.66;82.05;99163.53;4976542;28;20047;-75
2022/12/16 03:39:36;;;;;;;11.88;7.28;;;;;;;-2.49;81.65;99176.16;4996169;28;20069;-73
2022/12/16 03:42:02;;;;;;;17.52;9.80;;;;;;;-2.64;81.85;99182.63;4976919;28;20044;-72
2022/12/16 03:44:27;;;;;;;16.55;8.88;;;;;;;-2.56;81.61;99185.88;4995574;28;20041;-71
2022/12/16 03:46:52;;;;;;;15.40;9.05;;;;;;;-2.52;81.62;99186.66;4962520;28;20041;-71
2022/12/16 03:49:17;;;;;;;12.98;8.65;;;;;;;-2.50;81.64;99182.28;4996446;28;20081;-74
2022/12/16 03:51:41;;;;;;;12.98;8.63;;;;;;;-2.54;81.79;99182.38;4954399;28;20037;-73
2022/12/16 03:54:06;;;;;;;14.68;9.25;;;;;;;-2.51;81.74;99192.75;4972918;28;20132;-71
2022/12/16 03:56:31;;;;;;;12.73;8.48;;;;;;;-2.41;81.68;99195.06;4996420;28;20452;-71
2022/12/16 03:58:55;;;;;;;14.30;8.85;;;;;;;-2.32;81.85;99207.88;4978610;28;20539;-71
2022/12/16 04:01:22;;;;;;;12.35;7.18;;;;;;;-2.27;81.63;99207.75;4962103;28;20040;-71
2022/12/16 04:03:46;;;;;;;16.50;9.15;;;;;;;-2.28;81.38;99204.28;4996151;28;20033;-73
2022/12/16 04:06:11;;;;;;;15.50;10.43;;;;;;;-2.27;81.46;99207.75;4996424;28;20045;-73
2022/12/16 04:08:36;;;;;;;13.07;8.02;;;;;;;-2.22;81.03;99208.47;4996033;28;20061;-72
2022/12/16 04:24:46;;;;;;;15.63;8.75;;;;;;;-2.14;80.95;99250.06;4965701;28;20037;-73
2022/12/16 04:27:28;;;;;;;12.30;7.60;;;;;;;-2.03;81.18;99248.84;4999030;28;20100;-73
